La rose des vents
Donnes mto: Semaine 18/04/22 - 24/04/22 (S 16)
Date Horaire Temp. E. Hum. E. P.atmo. Pluie Vent 1mn Direction Ensoleilleme Ev.Tr. Solaire P. de rose Temp au vent Rafales
18/04/2022 00:00 13,7 C 67 % 1015,1 hPa 0,0 mm 0,0 km/h (0 Bft) N 0,00 h 0,025 mm 0 W/m 7,8 C 13,7 C 0,0 km/h (0 Bft)
18/04/2022 01:00 13,4 C 68 % 1015,5 hPa 0,0 mm 0,0 km/h (0 Bft) N 0,00 h 0,025 mm 0 W/m 7,7 C 13,4 C 0,0 km/h (0 Bft)
18/04/2022 02:00 13,1 C 69 % 1015,3 hPa 0,0 mm 0,0 km/h (0 Bft) N 0,00 h 0,025 mm 0 W/m 7,7 C 13,1 C 0,0 km/h (0 Bft)
18/04/2022 03:00 12,8 C 73 % 1015,3 hPa 0,0 mm 0,0 km/h (0 Bft) SO 0,00 h 0,025 mm 0 W/m 8,0 C 12,8 C 0,4 km/h (0 Bft)
18/04/2022 04:00 12,1 C 81 % 1015,4 hPa 0,0 mm 0,0 km/h (0 Bft) N 0,00 h 0,025 mm 0 W/m 8,9 C 12,1 C 0,2 km/h (0 Bft)
18/04/2022 05:00 12,2 C 88 % 1015,6 hPa 0,0 mm 0,0 km/h (0 Bft) N 0,00 h 0,025 mm 0 W/m 10,3 C 12,2 C 0,3 km/h (0 Bft)
18/04/2022 06:00 12,3 C 89 % 1015,6 hPa 0,0 mm 0,0 km/h (0 Bft) N 0,00 h 0,000 mm 7 W/m 10,5 C 12,3 C 0,0 km/h (0 Bft)
18/04/2022 07:00 11,8 C 84 % 1015,7 hPa 0,0 mm 0,1 km/h (0 Bft) SO 0,00 h 0,000 mm 26 W/m 9,2 C 11,8 C 0,4 km/h (0 Bft)
18/04/2022 08:00 12,3 C 73 % 1015,7 hPa 0,0 mm 1,6 km/h (1 Bft) S-SO 0,00 h 0,025 mm 59 W/m 7,6 C 12,3 C 3,2 km/h (1 Bft)
18/04/2022 09:00 14,9 C 62 % 1015,7 hPa 0,0 mm 2,1 km/h (1 Bft) S-SO 0,78 h 0,051 mm 368 W/m 7,6 C 14,9 C 5,1 km/h (1 Bft)
18/04/2022 10:00 17,3 C 55 % 1015,3 hPa 0,0 mm 3,7 km/h (1 Bft) S 1,00 h 0,203 mm 564 W/m 8,3 C 17,3 C 7,5 km/h (2 Bft)
18/04/2022 11:00 18,3 C 54 % 1014,9 hPa 0,0 mm 5,1 km/h (1 Bft) S 1,00 h 0,330 mm 681 W/m 8,7 C 18,3 C 10,6 km/h (2 Bft)
18/04/2022 12:00 19,1 C 51 % 1014,4 hPa 0,0 mm 4,2 km/h (1 Bft) S 1,00 h 0,406 mm 763 W/m 8,9 C 19,1 C 10,4 km/h (2 Bft)
18/04/2022 13:00 19,1 C 46 % 1013,9 hPa 0,0 mm 8,0 km/h (2 Bft) S-SE 1,00 h 0,457 mm 794 W/m 7,3 C 19,1 C 15,0 km/h (3 Bft)
18/04/2022 14:00 18,5 C 46 % 1013,6 hPa 0,0 mm 5,9 km/h (2 Bft) S-SE 1,00 h 0,508 mm 767 W/m 6,8 C 18,5 C 12,1 km/h (2 Bft)
18/04/2022 15:00 18,5 C 47 % 1013,1 hPa 0,0 mm 6,7 km/h (2 Bft) S 1,00 h 0,483 mm 687 W/m 6,9 C 18,5 C 12,9 km/h (3 Bft)
18/04/2022 16:00 18,3 C 43 % 1012,5 hPa 0,0 mm 6,9 km/h (2 Bft) S 1,00 h 0,432 mm 565 W/m 5,5 C 18,3 C 13,5 km/h (3 Bft)
18/04/2022 17:00 17,9 C 45 % 1012,1 hPa 0,0 mm 6,4 km/h (2 Bft) S 1,00 h 0,381 mm 409 W/m 5,7 C 17,9 C 12,0 km/h (2 Bft)
18/04/2022 18:00 16,8 C 50 % 1012,0 hPa 0,0 mm 5,3 km/h (1 Bft) S 0,88 h 0,279 mm 224 W/m 6,3 C 16,8 C 9,8 km/h (2 Bft)
18/04/2022 19:00 15,1 C 59 % 1012,0 hPa 0,0 mm 4,8 km/h (1 Bft) S 0,02 h 0,152 mm 36 W/m 7,2 C 15,1 C 7,4 km/h (2 Bft)
18/04/2022 20:00 13,4 C 67 % 1012,0 hPa 0,0 mm 1,9 km/h (1 Bft) S 0,00 h 0,051 mm 8 W/m 7,4 C 13,4 C 3,2 km/h (1 Bft)
18/04/2022 21:00 12,3 C 71 % 1012,3 hPa 0,0 mm 0,0 km/h (0 Bft) N 0,00 h 0,025 mm 0 W/m 7,1 C 12,3 C 0,0 km/h (0 Bft)
18/04/2022 22:00 11,0 C 74 % 1012,4 hPa 0,0 mm 0,0 km/h (0 Bft) N 0,00 h 0,025 mm 0 W/m 6,6 C 11,0 C 0,0 km/h (0 Bft)
18/04/2022 23:00 10,1 C 79 % 1012,2 hPa 0,0 mm 0,0 km/h (0 Bft) N 0,00 h 0,025 mm 0 W/m 6,7 C 10,1 C 0,0 km/h (0 Bft)
19/04/2022 00:00 9,7 C 83 % 1012,2 hPa 0,0 mm 0,0 km/h (0 Bft) N 0,00 h 0,025 mm 0 W/m 7,0 C 9,7 C 0,0 km/h (0 Bft)
19/04/2022 01:00 9,3 C 84 % 1012,1 hPa 0,0 mm 0,0 km/h (0 Bft) N 0,00 h 0,000 mm 0 W/m 6,7 C 9,3 C 0,1 km/h (0 Bft)
19/04/2022 02:00 9,0 C 85 % 1011,7 hPa 0,0 mm 0,0 km/h (0 Bft) N 0,00 h 0,000 mm 0 W/m 6,7 C 9,0 C 0,1 km/h (0 Bft)
19/04/2022 03:00 9,0 C 87 % 1011,5 hPa 0,0 mm 0,0 km/h (0 Bft) N 0,00 h 0,000 mm 0 W/m 7,1 C 9,0 C 0,0 km/h (0 Bft)
19/04/2022 04:00 9,2 C 86 % 1011,4 hPa 0,0 mm 0,0 km/h (0 Bft) N 0,00 h 0,000 mm 0 W/m 7,0 C 9,2 C 0,0 km/h (0 Bft)
19/04/2022 05:00 9,2 C 86 % 1011,1 hPa 0,0 mm 0,0 km/h (0 Bft) N 0,00 h 0,000 mm 0 W/m 6,9 C 9,2 C 0,0 km/h (0 Bft)
19/04/2022 06:00 8,7 C 83 % 1011,1 hPa 0,0 mm 0,0 km/h (0 Bft) N 0,00 h 0,000 mm 7 W/m 5,9 C 8,7 C 0,0 km/h (0 Bft)
19/04/2022 07:00 8,7 C 84 % 1011,2 hPa 0,0 mm 0,0 km/h (0 Bft) N 0,00 h 0,000 mm 23 W/m 6,1 C 8,7 C 0,0 km/h (0 Bft)
19/04/2022 08:00 10,8 C 84 % 1011,3 hPa 0,0 mm 0,0 km/h (0 Bft) N 0,07 h 0,025 mm 65 W/m 8,1 C 10,8 C 0,0 km/h (0 Bft)
19/04/2022 09:00 14,6 C 76 % 1011,1 hPa 0,0 mm 0,7 km/h (0 Bft) E 0,77 h 0,025 mm 360 W/m 10,4 C 14,6 C 1,5 km/h (1 Bft)
19/04/2022 10:00 17,2 C 68 % 1010,9 hPa 0,0 mm 2,6 km/h (1 Bft) E-SE 0,92 h 0,178 mm 563 W/m 11,2 C 17,2 C 6,8 km/h (2 Bft)
19/04/2022 11:00 18,1 C 67 % 1010,6 hPa 0,0 mm 4,1 km/h (1 Bft) E 0,97 h 0,305 mm 677 W/m 11,7 C 18,1 C 9,4 km/h (2 Bft)
19/04/2022 12:00 18,1 C 68 % 1010,3 hPa 0,0 mm 5,5 km/h (1 Bft) E 0,88 h 0,381 mm 721 W/m 12,1 C 18,1 C 11,5 km/h (2 Bft)
19/04/2022 13:00 18,4 C 68 % 1009,6 hPa 0,0 mm 4,3 km/h (1 Bft) E 0,68 h 0,406 mm 718 W/m 12,4 C 18,4 C 10,0 km/h (2 Bft)
19/04/2022 14:00 16,8 C 73 % 1009,3 hPa 0,0 mm 4,1 km/h (1 Bft) E 0,00 h 0,406 mm 273 W/m 11,9 C 16,8 C 9,6 km/h (2 Bft)
19/04/2022 15:00 16,0 C 77 % 1009,0 hPa 0,0 mm 2,1 km/h (1 Bft) E 0,00 h 0,178 mm 288 W/m 11,9 C 16,0 C 4,9 km/h (1 Bft)
19/04/2022 16:00 16,2 C 76 % 1008,3 hPa 0,0 mm 1,6 km/h (1 Bft) E-SE 0,00 h 0,152 mm 235 W/m 11,9 C 16,2 C 4,8 km/h (1 Bft)
19/04/2022 17:00 15,7 C 80 % 1008,3 hPa 0,0 mm 1,6 km/h (1 Bft) E-SE 0,00 h 0,127 mm 161 W/m 12,2 C 15,7 C 4,5 km/h (1 Bft)
19/04/2022 18:00 15,3 C 81 % 1007,9 hPa 0,0 mm 0,4 km/h (0 Bft) E-SE 0,12 h 0,102 mm 129 W/m 12,1 C 15,3 C 1,7 km/h (1 Bft)
19/04/2022 19:00 14,6 C 83 % 1007,8 hPa 0,0 mm 0,3 km/h (0 Bft) E-SE 0,00 h 0,076 mm 24 W/m 11,6 C 14,6 C 0,9 km/h (0 Bft)
19/04/2022 20:00 13,9 C 84 % 1007,8 hPa 0,0 mm 0,0 km/h (0 Bft) N 0,13 h 0,025 mm 17 W/m 11,3 C 13,9 C 0,0 km/h (0 Bft)
19/04/2022 21:00 13,4 C 87 % 1008,2 hPa 0,0 mm 0,0 km/h (0 Bft) N 0,00 h 0,000 mm 0 W/m 11,2 C 13,4 C 0,0 km/h (0 Bft)
19/04/2022 22:00 13,3 C 88 % 1008,6 hPa 0,0 mm 0,0 km/h (0 Bft) N 0,00 h 0,000 mm 0 W/m 11,4 C 13,3 C 0,0 km/h (0 Bft)
19/04/2022 23:00 13,2 C 88 % 1008,7 hPa 0,0 mm 0,0 km/h (0 Bft) N 0,00 h 0,000 mm 0 W/m 11,3 C 13,2 C 0,0 km/h (0 Bft)
20/04/2022 00:00 12,8 C 88 % 1008,7 hPa 0,0 mm 0,0 km/h (0 Bft) N 0,00 h 0,000 mm 0 W/m 10,9 C 12,8 C 0,0 km/h (0 Bft)
20/04/2022 01:00 12,5 C 90 % 1008,6 hPa 0,0 mm 0,0 km/h (0 Bft) N 0,00 h 0,000 mm 0 W/m 10,9 C 12,5 C 0,0 km/h (0 Bft)
20/04/2022 02:00 11,9 C 91 % 1008,6 hPa 0,0 mm 0,0 km/h (0 Bft) N 0,00 h 0,000 mm 0 W/m 10,4 C 11,9 C 0,0 km/h (0 Bft)
20/04/2022 03:00 11,6 C 92 % 1008,5 hPa 0,0 mm 0,0 km/h (0 Bft) N 0,00 h 0,000 mm 0 W/m 10,4 C 11,6 C 0,0 km/h (0 Bft)
20/04/2022 04:00 11,5 C 93 % 1008,4 hPa 0,0 mm 0,0 km/h (0 Bft) N 0,00 h 0,000 mm 0 W/m 10,5 C 11,5 C 0,0 km/h (0 Bft)
20/04/2022 05:00 11,6 C 94 % 1008,8 hPa 0,0 mm 0,0 km/h (0 Bft) N 0,00 h 0,000 mm 0 W/m 10,7 C 11,6 C 0,0 km/h (0 Bft)
20/04/2022 06:00 11,6 C 95 % 1009,1 hPa 0,0 mm 0,0 km/h (0 Bft) N 0,00 h 0,000 mm 6 W/m 10,8 C 11,6 C 0,0 km/h (0 Bft)
20/04/2022 07:00 12,1 C 94 % 1009,3 hPa 0,0 mm 0,0 km/h (0 Bft) E-SE 0,00 h 0,000 mm 38 W/m 11,2 C 12,1 C 0,5 km/h (0 Bft)
20/04/2022 08:00 12,9 C 93 % 1009,3 hPa 0,0 mm 0,5 km/h (0 Bft) E-SE 0,12 h 0,025 mm 112 W/m 11,8 C 12,9 C 1,7 km/h (1 Bft)
20/04/2022 09:00 15,4 C 84 % 1009,3 hPa 0,0 mm 1,5 km/h (1 Bft) E 0,18 h 0,051 mm 219 W/m 12,8 C 15,4 C 6,3 km/h (2 Bft)
20/04/2022 10:00 15,7 C 82 % 1009,8 hPa 0,0 mm 3,2 km/h (1 Bft) E 0,00 h 0,127 mm 206 W/m 12,7 C 15,7 C 10,2 km/h (2 Bft)
20/04/2022 11:00 15,8 C 81 % 1010,2 hPa 0,0 mm 3,4 km/h (1 Bft) E 0,00 h 0,127 mm 231 W/m 12,6 C 15,8 C 10,8 km/h (2 Bft)
20/04/2022 12:00 15,5 C 77 % 1010,0 hPa 0,0 mm 3,4 km/h (1 Bft) E 0,00 h 0,127 mm 175 W/m 11,5 C 15,5 C 10,2 km/h (2 Bft)
20/04/2022 13:00 15,0 C 80 % 1009,8 hPa 0,0 mm 3,5 km/h (1 Bft) E 0,00 h 0,102 mm 163 W/m 11,6 C 15,0 C 10,7 km/h (2 Bft)
20/04/2022 14:00 14,8 C 83 % 1009,9 hPa 0,0 mm 3,5 km/h (1 Bft) E 0,00 h 0,102 mm 140 W/m 11,9 C 14,8 C 10,0 km/h (2 Bft)
20/04/2022 15:00 15,0 C 84 % 1009,6 hPa 0,0 mm 1,8 km/h (1 Bft) E 0,00 h 0,076 mm 226 W/m 12,2 C 15,0 C 6,9 km/h (2 Bft)
20/04/2022 16:00 16,0 C 73 % 1008,9 hPa 0,0 mm 2,2 km/h (1 Bft) E-SE 0,00 h 0,127 mm 205 W/m 11,1 C 16,0 C 7,9 km/h (2 Bft)
20/04/2022 17:00 15,9 C 72 % 1008,6 hPa 0,0 mm 2,8 km/h (1 Bft) E 0,00 h 0,127 mm 165 W/m 10,8 C 15,9 C 8,6 km/h (2 Bft)
20/04/2022 18:00 15,0 C 76 % 1008,8 hPa 0,0 mm 2,5 km/h (1 Bft) E 0,00 h 0,102 mm 66 W/m 10,9 C 15,0 C 7,5 km/h (2 Bft)
20/04/2022 19:00 14,2 C 81 % 1008,8 hPa 0,0 mm 1,4 km/h (1 Bft) E 0,00 h 0,051 mm 13 W/m 10,9 C 14,2 C 4,0 km/h (1 Bft)
20/04/2022 20:00 13,7 C 83 % 1008,5 hPa 0,0 mm 0,1 km/h (0 Bft) E 0,00 h 0,025 mm 5 W/m 10,8 C 13,7 C 0,5 km/h (0 Bft)
20/04/2022 21:00 13,5 C 82 % 1008,5 hPa 0,0 mm 0,6 km/h (0 Bft) E 0,00 h 0,000 mm 0 W/m 10,4 C 13,5 C 2,2 km/h (1 Bft)
20/04/2022 22:00 14,0 C 80 % 1008,2 hPa 0,0 mm 0,5 km/h (0 Bft) N 0,00 h 0,025 mm 0 W/m 10,6 C 14,0 C 2,4 km/h (1 Bft)
20/04/2022 23:00 13,5 C 87 % 1008,1 hPa 1,2 mm 1,8 km/h (1 Bft) E 0,00 h 0,025 mm 0 W/m 11,4 C 13,5 C 3,8 km/h (1 Bft)
21/04/2022 00:00 12,8 C 92 % 1008,2 hPa 5,2 mm 0,2 km/h (0 Bft) N 0,00 h 0,025 mm 0 W/m 11,5 C 12,8 C 1,3 km/h (1 Bft)
21/04/2022 01:00 12,2 C 94 % 1007,8 hPa 2,4 mm 0,0 km/h (0 Bft) N 0,00 h 0,000 mm 0 W/m 11,2 C 12,2 C 0,1 km/h (0 Bft)
21/04/2022 02:00 11,8 C 94 % 1006,9 hPa 0,0 mm 0,0 km/h (0 Bft) N 0,00 h 0,000 mm 0 W/m 11,0 C 11,8 C 0,0 km/h (0 Bft)
21/04/2022 03:00 11,7 C 96 % 1006,2 hPa 0,0 mm 0,0 km/h (0 Bft) N 0,00 h 0,000 mm 0 W/m 11,0 C 11,7 C 0,1 km/h (0 Bft)
21/04/2022 04:00 11,5 C 96 % 1005,7 hPa 0,0 mm 0,5 km/h (0 Bft) S-SE 0,00 h 0,000 mm 0 W/m 10,9 C 11,5 C 1,0 km/h (0 Bft)
21/04/2022 05:00 11,4 C 97 % 1005,3 hPa 0,0 mm 0,2 km/h (0 Bft) S-SE 0,00 h 0,000 mm 0 W/m 10,9 C 11,4 C 0,8 km/h (0 Bft)
21/04/2022 06:00 11,2 C 97 % 1004,7 hPa 0,0 mm 0,0 km/h (0 Bft) N 0,00 h 0,000 mm 8 W/m 10,8 C 11,2 C 0,1 km/h (0 Bft)
21/04/2022 07:00 11,2 C 97 % 1004,1 hPa 0,0 mm 0,3 km/h (0 Bft) S-SE 0,00 h 0,000 mm 39 W/m 10,7 C 11,2 C 0,6 km/h (0 Bft)
21/04/2022 08:00 11,7 C 98 % 1003,4 hPa 0,0 mm 0,0 km/h (0 Bft) S-SE 0,03 h 0,025 mm 119 W/m 11,4 C 11,7 C 0,3 km/h (0 Bft)
21/04/2022 09:00 13,0 C 95 % 1004,1 hPa 0,0 mm 1,2 km/h (1 Bft) S-SE 0,08 h 0,051 mm 127 W/m 12,3 C 13,0 C 3,2 km/h (1 Bft)
21/04/2022 10:00 13,4 C 90 % 1004,6 hPa 0,0 mm 1,6 km/h (1 Bft) N 0,03 h 0,051 mm 169 W/m 11,7 C 13,4 C 6,0 km/h (2 Bft)
21/04/2022 11:00 16,1 C 78 % 1004,0 hPa 0,0 mm 2,1 km/h (1 Bft) E 0,43 h 0,102 mm 450 W/m 12,3 C 16,1 C 8,2 km/h (2 Bft)
21/04/2022 12:00 19,3 C 64 % 1002,3 hPa 0,2 mm 4,0 km/h (1 Bft) E 0,95 h 0,254 mm 639 W/m 12,2 C 19,3 C 11,6 km/h (2 Bft)
21/04/2022 13:00 19,3 C 59 % 1001,6 hPa 0,0 mm 4,3 km/h (1 Bft) E 1,00 h 0,381 mm 556 W/m 11,2 C 19,3 C 14,5 km/h (3 Bft)
21/04/2022 14:00 18,2 C 61 % 1001,0 hPa 0,0 mm 3,8 km/h (1 Bft) E 0,12 h 0,330 mm 353 W/m 10,5 C 18,2 C 13,3 km/h (3 Bft)
21/04/2022 15:00 18,1 C 59 % 1000,6 hPa 0,0 mm 3,5 km/h (1 Bft) E-SE 0,05 h 0,229 mm 226 W/m 10,0 C 18,1 C 10,8 km/h (2 Bft)
21/04/2022 16:00 16,8 C 63 % 1000,2 hPa 0,0 mm 5,4 km/h (1 Bft) E-SE 0,00 h 0,152 mm 99 W/m 9,7 C 16,8 C 14,5 km/h (3 Bft)
21/04/2022 17:00 16,2 C 66 % 999,9 hPa 0,0 mm 0,9 km/h (0 Bft) E-SE 0,00 h 0,076 mm 43 W/m 9,9 C 16,2 C 3,3 km/h (1 Bft)
21/04/2022 18:00 16,1 C 67 % 999,3 hPa 0,0 mm 0,3 km/h (0 Bft) E-SE 0,00 h 0,025 mm 30 W/m 10,0 C 16,1 C 1,2 km/h (1 Bft)
21/04/2022 19:00 15,7 C 68 % 999,0 hPa 0,0 mm 0,0 km/h (0 Bft) E 0,00 h 0,025 mm 15 W/m 9,8 C 15,7 C 0,2 km/h (0 Bft)
21/04/2022 20:00 15,5 C 65 % 998,6 hPa 0,0 mm 0,0 km/h (0 Bft) N 0,00 h 0,025 mm 5 W/m 8,8 C 15,5 C 0,1 km/h (0 Bft)
21/04/2022 21:00 15,2 C 65 % 998,6 hPa 0,0 mm 0,5 km/h (0 Bft) S-SO 0,00 h 0,000 mm 0 W/m 8,6 C 15,2 C 1,0 km/h (0 Bft)
21/04/2022 22:00 14,6 C 71 % 998,6 hPa 0,0 mm 1,6 km/h (1 Bft) S-SO 0,00 h 0,025 mm 0 W/m 9,4 C 14,6 C 3,0 km/h (1 Bft)
21/04/2022 23:00 14,1 C 73 % 998,6 hPa 0,0 mm 1,0 km/h (0 Bft) E 0,00 h 0,025 mm 0 W/m 9,3 C 14,1 C 2,9 km/h (1 Bft)
22/04/2022 00:00 13,4 C 76 % 998,4 hPa 0,0 mm 0,7 km/h (0 Bft) E 0,00 h 0,025 mm 0 W/m 9,3 C 13,4 C 1,9 km/h (1 Bft)
22/04/2022 01:00 13,1 C 76 % 998,0 hPa 0,0 mm 0,7 km/h (0 Bft) O 0,00 h 0,025 mm 0 W/m 8,9 C 13,1 C 2,3 km/h (1 Bft)
22/04/2022 02:00 12,6 C 81 % 997,6 hPa 0,0 mm 1,4 km/h (1 Bft) O 0,00 h 0,025 mm 0 W/m 9,5 C 12,6 C 3,7 km/h (1 Bft)
22/04/2022 03:00 12,4 C 82 % 996,9 hPa 0,0 mm 2,1 km/h (1 Bft) O 0,00 h 0,025 mm 0 W/m 9,5 C 12,4 C 5,6 km/h (1 Bft)
22/04/2022 04:00 12,8 C 80 % 996,6 hPa 0,0 mm 0,6 km/h (0 Bft) O 0,00 h 0,025 mm 0 W/m 9,4 C 12,8 C 2,0 km/h (1 Bft)
22/04/2022 05:00 12,4 C 82 % 996,9 hPa 0,0 mm 0,0 km/h (0 Bft) N 0,00 h 0,025 mm 0 W/m 9,4 C 12,4 C 0,0 km/h (0 Bft)
22/04/2022 06:00 12,0 C 83 % 996,8 hPa 0,0 mm 0,1 km/h (0 Bft) O 0,00 h 0,025 mm 6 W/m 9,1 C 12,0 C 0,2 km/h (0 Bft)
22/04/2022 07:00 11,8 C 83 % 997,5 hPa 0,0 mm 0,0 km/h (0 Bft) N 0,00 h 0,000 mm 34 W/m 9,0 C 11,8 C 0,0 km/h (0 Bft)
22/04/2022 08:00 12,3 C 84 % 998,1 hPa 0,0 mm 0,0 km/h (0 Bft) N 0,00 h 0,025 mm 113 W/m 9,8 C 12,3 C 0,0 km/h (0 Bft)
22/04/2022 09:00 14,3 C 82 % 998,6 hPa 0,0 mm 0,3 km/h (0 Bft) SO 0,17 h 0,051 mm 224 W/m 11,2 C 14,3 C 0,7 km/h (0 Bft)
22/04/2022 10:00 15,2 C 80 % 999,0 hPa 0,0 mm 0,0 km/h (0 Bft) SO 0,00 h 0,127 mm 221 W/m 11,8 C 15,2 C 0,2 km/h (0 Bft)
22/04/2022 11:00 15,7 C 81 % 999,4 hPa 0,0 mm 0,6 km/h (0 Bft) S-SO 0,00 h 0,127 mm 223 W/m 12,4 C 15,7 C 1,8 km/h (1 Bft)
22/04/2022 12:00 15,6 C 82 % 999,7 hPa 0,0 mm 6,4 km/h (2 Bft) S 0,00 h 0,127 mm 248 W/m 12,7 C 15,6 C 12,2 km/h (2 Bft)
22/04/2022 13:00 16,5 C 77 % 1000,0 hPa 0,0 mm 12,1 km/h (2 Bft) S 0,28 h 0,152 mm 432 W/m 12,5 C 16,5 C 19,5 km/h (3 Bft)
22/04/2022 14:00 17,2 C 72 % 1000,5 hPa 0,0 mm 13,6 km/h (3 Bft) S 0,60 h 0,254 mm 601 W/m 12,2 C 17,2 C 21,5 km/h (4 Bft)
22/04/2022 15:00 16,9 C 72 % 1000,8 hPa 0,0 mm 14,4 km/h (3 Bft) S 0,22 h 0,381 mm 429 W/m 11,8 C 16,9 C 22,1 km/h (4 Bft)
22/04/2022 16:00 15,9 C 74 % 1001,3 hPa 0,0 mm 13,9 km/h (3 Bft) S 0,00 h 0,279 mm 181 W/m 11,3 C 15,9 C 20,9 km/h (4 Bft)
22/04/2022 17:00 14,9 C 82 % 1002,1 hPa 0,0 mm 8,6 km/h (2 Bft) S 0,00 h 0,152 mm 126 W/m 11,7 C 14,9 C 13,6 km/h (3 Bft)
22/04/2022 18:00 14,7 C 85 % 1002,4 hPa 0,0 mm 6,1 km/h (2 Bft) S 0,12 h 0,076 mm 108 W/m 12,2 C 14,7 C 9,8 km/h (2 Bft)
22/04/2022 19:00 14,2 C 88 % 1002,7 hPa 0,0 mm 4,1 km/h (1 Bft) S 0,00 h 0,076 mm 24 W/m 12,2 C 14,2 C 6,8 km/h (2 Bft)
22/04/2022 20:00 13,6 C 90 % 1003,0 hPa 0,0 mm 0,8 km/h (0 Bft) S 0,00 h 0,025 mm 8 W/m 12,1 C 13,6 C 2,2 km/h (1 Bft)
22/04/2022 21:00 13,3 C 92 % 1003,3 hPa 0,0 mm 0,1 km/h (0 Bft) S 0,00 h 0,000 mm 0 W/m 12,0 C 13,3 C 0,1 km/h (0 Bft)
22/04/2022 22:00 13,0 C 92 % 1003,5 hPa 0,0 mm 0,0 km/h (0 Bft) N 0,00 h 0,000 mm 0 W/m 11,7 C 13,0 C 0,0 km/h (0 Bft)
22/04/2022 23:00 12,9 C 93 % 1003,7 hPa 0,0 mm 0,0 km/h (0 Bft) N 0,00 h 0,000 mm 0 W/m 11,9 C 12,9 C 0,0 km/h (0 Bft)
23/04/2022 00:00 13,0 C 94 % 1003,9 hPa 0,0 mm 0,0 km/h (0 Bft) N 0,00 h 0,000 mm 0 W/m 12,0 C 13,0 C 0,0 km/h (0 Bft)
23/04/2022 01:00 12,8 C 94 % 1004,0 hPa 0,0 mm 0,0 km/h (0 Bft) N 0,00 h 0,000 mm 0 W/m 11,8 C 12,8 C 0,0 km/h (0 Bft)
23/04/2022 02:00 12,5 C 94 % 1003,8 hPa 0,0 mm 0,0 km/h (0 Bft) N 0,00 h 0,000 mm 0 W/m 11,6 C 12,5 C 0,0 km/h (0 Bft)
23/04/2022 03:00 12,3 C 94 % 1003,8 hPa 0,0 mm 0,0 km/h (0 Bft) N 0,00 h 0,000 mm 0 W/m 11,4 C 12,3 C 0,0 km/h (0 Bft)
23/04/2022 04:00 12,1 C 95 % 1003,8 hPa 0,0 mm 0,0 km/h (0 Bft) N 0,00 h 0,000 mm 0 W/m 11,4 C 12,1 C 0,0 km/h (0 Bft)
23/04/2022 05:00 12,1 C 96 % 1003,9 hPa 0,0 mm 0,0 km/h (0 Bft) N 0,00 h 0,000 mm 0 W/m 11,4 C 12,1 C 0,0 km/h (0 Bft)
23/04/2022 06:00 12,2 C 96 % 1003,8 hPa 1,8 mm 0,6 km/h (0 Bft) S 0,00 h 0,000 mm 10 W/m 11,6 C 12,2 C 1,6 km/h (1 Bft)
23/04/2022 07:00 12,8 C 98 % 1004,0 hPa 0,2 mm 0,1 km/h (0 Bft) S 0,00 h 0,000 mm 20 W/m 12,4 C 12,8 C 0,5 km/h (0 Bft)
23/04/2022 08:00 12,6 C 98 % 1004,3 hPa 9,4 mm 1,5 km/h (1 Bft) S-SE 0,00 h 0,000 mm 47 W/m 12,3 C 12,6 C 3,9 km/h (1 Bft)
23/04/2022 09:00 13,3 C 98 % 1004,5 hPa 0,0 mm 0,0 km/h (0 Bft) E-SE 0,00 h 0,025 mm 47 W/m 13,0 C 13,3 C 0,6 km/h (0 Bft)
23/04/2022 10:00 13,5 C 98 % 1004,6 hPa 0,0 mm 0,1 km/h (0 Bft) E-SE 0,00 h 0,025 mm 74 W/m 13,2 C 13,5 C 0,3 km/h (0 Bft)
23/04/2022 11:00 13,4 C 99 % 1004,7 hPa 0,8 mm 0,7 km/h (0 Bft) E 0,00 h 0,025 mm 74 W/m 13,2 C 13,4 C 2,6 km/h (1 Bft)
23/04/2022 12:00 13,3 C 99 % 1004,6 hPa 1,6 mm 0,3 km/h (0 Bft) N-NE 0,00 h 0,025 mm 77 W/m 13,2 C 13,3 C 2,1 km/h (1 Bft)
23/04/2022 13:00 13,2 C 99 % 1004,4 hPa 2,6 mm 0,1 km/h (0 Bft) NE 0,00 h 0,025 mm 56 W/m 13,0 C 13,2 C 0,5 km/h (0 Bft)
23/04/2022 14:00 12,9 C 99 % 1004,0 hPa 2,0 mm 0,1 km/h (0 Bft) NE 0,00 h 0,025 mm 79 W/m 12,7 C 12,9 C 0,7 km/h (0 Bft)
23/04/2022 15:00 12,6 C 98 % 1003,0 hPa 1,8 mm 0,1 km/h (0 Bft) N 0,00 h 0,051 mm 80 W/m 12,3 C 12,6 C 1,0 km/h (0 Bft)
23/04/2022 16:00 11,9 C 98 % 1001,8 hPa 2,8 mm 0,3 km/h (0 Bft) N-NE 0,00 h 0,051 mm 35 W/m 11,6 C 11,9 C 2,2 km/h (1 Bft)
23/04/2022 17:00 11,4 C 98 % 1001,0 hPa 6,2 mm 0,1 km/h (0 Bft) N 0,00 h 0,025 mm 19 W/m 11,1 C 11,4 C 0,9 km/h (0 Bft)
23/04/2022 18:00 11,1 C 98 % 1000,8 hPa 7,4 mm 2,6 km/h (1 Bft) SE 0,00 h 0,000 mm 14 W/m 10,8 C 11,1 C 5,9 km/h (2 Bft)
23/04/2022 19:00 11,0 C 98 % 1001,3 hPa 0,2 mm 4,7 km/h (1 Bft) S 0,03 h 0,000 mm 32 W/m 10,8 C 11,0 C 8,6 km/h (2 Bft)
23/04/2022 20:00 10,7 C 98 % 1001,9 hPa 1,8 mm 0,0 km/h (0 Bft) N 0,00 h 0,025 mm 5 W/m 10,4 C 10,7 C 0,0 km/h (0 Bft)
23/04/2022 21:00 10,4 C 98 % 1002,2 hPa 0,6 mm 1,6 km/h (1 Bft) S 0,00 h 0,000 mm 0 W/m 10,1 C 10,4 C 4,0 km/h (1 Bft)
23/04/2022 22:00 10,0 C 98 % 1001,9 hPa 0,4 mm 0,5 km/h (0 Bft) O-NO 0,00 h 0,000 mm 0 W/m 9,7 C 10,0 C 1,2 km/h (1 Bft)
23/04/2022 23:00 9,8 C 98 % 1001,7 hPa 0,0 mm 0,0 km/h (0 Bft) N 0,00 h 0,000 mm 0 W/m 9,5 C 9,8 C 0,4 km/h (0 Bft)
24/04/2022 00:00 9,4 C 98 % 1002,1 hPa 0,0 mm 0,0 km/h (0 Bft) N 0,00 h 0,000 mm 0 W/m 9,1 C 9,4 C 0,0 km/h (0 Bft)
24/04/2022 01:00 9,5 C 98 % 1002,5 hPa 0,2 mm 0,0 km/h (0 Bft) N 0,00 h 0,000 mm 0 W/m 9,2 C 9,5 C 0,0 km/h (0 Bft)
24/04/2022 02:00 9,5 C 98 % 1002,4 hPa 0,2 mm 0,0 km/h (0 Bft) N 0,00 h 0,000 mm 0 W/m 9,2 C 9,5 C 0,0 km/h (0 Bft)
24/04/2022 03:00 9,1 C 98 % 1001,8 hPa 0,0 mm 0,2 km/h (0 Bft) O-NO 0,00 h 0,000 mm 0 W/m 8,8 C 9,1 C 0,6 km/h (0 Bft)
24/04/2022 04:00 8,6 C 98 % 1001,7 hPa 0,0 mm 0,0 km/h (0 Bft) N 0,00 h 0,000 mm 0 W/m 8,3 C 8,6 C 0,0 km/h (0 Bft)
24/04/2022 05:00 8,2 C 98 % 1001,5 hPa 0,0 mm 0,0 km/h (0 Bft) N 0,00 h 0,000 mm 0 W/m 7,9 C 8,2 C 0,0 km/h (0 Bft)
24/04/2022 06:00 8,2 C 98 % 1001,7 hPa 0,4 mm 0,1 km/h (0 Bft) O-NO 0,00 h 0,000 mm 9 W/m 7,9 C 8,2 C 0,2 km/h (0 Bft)
24/04/2022 07:00 8,3 C 98 % 1001,8 hPa 1,0 mm 0,2 km/h (0 Bft) O-NO 0,00 h 0,000 mm 22 W/m 8,0 C 8,3 C 0,9 km/h (0 Bft)
24/04/2022 08:00 9,0 C 99 % 1002,1 hPa 0,0 mm 0,0 km/h (0 Bft) N 0,10 h 0,000 mm 111 W/m 8,8 C 9,0 C 0,0 km/h (0 Bft)
24/04/2022 09:00 10,8 C 99 % 1002,1 hPa 0,0 mm 0,0 km/h (0 Bft) N 0,35 h 0,051 mm 276 W/m 10,6 C 10,8 C 0,0 km/h (0 Bft)
24/04/2022 10:00 13,4 C 95 % 1002,2 hPa 0,0 mm 0,0 km/h (0 Bft) N 0,82 h 0,127 mm 548 W/m 12,6 C 13,4 C 0,0 km/h (0 Bft)
24/04/2022 11:00 15,2 C 77 % 1002,4 hPa 0,0 mm 0,0 km/h (0 Bft) N 0,38 h 0,279 mm 368 W/m 11,2 C 15,2 C 0,1 km/h (0 Bft)
24/04/2022 12:00 13,6 C 87 % 1003,3 hPa 0,8 mm 0,0 km/h (0 Bft) N 0,02 h 0,178 mm 260 W/m 11,5 C 13,6 C 0,0 km/h (0 Bft)
24/04/2022 13:00 13,7 C 90 % 1003,6 hPa 0,0 mm 0,1 km/h (0 Bft) S 0,12 h 0,127 mm 341 W/m 12,0 C 13,7 C 0,3 km/h (0 Bft)
24/04/2022 14:00 14,5 C 87 % 1003,9 hPa 0,0 mm 0,2 km/h (0 Bft) S 0,50 h 0,178 mm 497 W/m 12,4 C 14,5 C 0,5 km/h (0 Bft)
24/04/2022 15:00 15,9 C 81 % 1004,0 hPa 0,2 mm 0,8 km/h (0 Bft) S 0,23 h 0,254 mm 362 W/m 12,7 C 15,9 C 2,7 km/h (1 Bft)
24/04/2022 16:00 15,5 C 87 % 1004,1 hPa 0,0 mm 0,1 km/h (0 Bft) E 0,18 h 0,203 mm 243 W/m 13,3 C 15,5 C 0,4 km/h (0 Bft)
24/04/2022 17:00 15,3 C 87 % 1004,5 hPa 0,0 mm 0,1 km/h (0 Bft) N-NE 0,00 h 0,127 mm 129 W/m 13,1 C 15,3 C 1,0 km/h (0 Bft)
24/04/2022 18:00 15,0 C 85 % 1004,8 hPa 0,0 mm 0,0 km/h (0 Bft) N 0,85 h 0,076 mm 251 W/m 12,5 C 15,0 C 0,8 km/h (0 Bft)
24/04/2022 19:00 14,3 C 83 % 1005,0 hPa 0,0 mm 0,0 km/h (0 Bft) N 0,15 h 0,127 mm 56 W/m 11,4 C 14,3 C 0,0 km/h (0 Bft)
24/04/2022 20:00 12,6 C 86 % 1005,7 hPa 0,0 mm 0,0 km/h (0 Bft) N 0,00 h 0,025 mm 13 W/m 10,3 C 12,6 C 0,0 km/h (0 Bft)
24/04/2022 21:00 11,5 C 88 % 1006,5 hPa 0,0 mm 0,0 km/h (0 Bft) N 0,00 h 0,000 mm 0 W/m 9,7 C 11,5 C 0,0 km/h (0 Bft)
24/04/2022 22:00 10,8 C 90 % 1007,0 hPa 0,0 mm 0,0 km/h (0 Bft) N 0,00 h 0,000 mm 0 W/m 9,3 C 10,8 C 0,0 km/h (0 Bft)
24/04/2022 23:00 10,4 C 93 % 1007,3 hPa 0,0 mm 0,0 km/h (0 Bft) N 0,00 h 0,000 mm 0 W/m 9,4 C 10,4 C 0,0 km/h (0 Bft)
Min-Date _ 24/04/22 18/04/22 22/04/22 - 18/04/22 - - - - 18/04/22 24/04/22 18/04/22
_ Min-Heure 05:23 16:10 04:15 - 00:00 - - - - 16:50 07:03 00:00
Minimum _ 8,1 C 42 % 996,4 hPa - 0,0 km/h (0 Bft) - - - - 4,9 C 7,3 C 0,0 km/h (0 Bft)
Max-Date _ 18/04/22 24/04/22 18/04/22 23/04/22 22/04/22 - 18/04/22 18/04/22 24/04/22 24/04/22 18/04/22 21/04/22
_ Max-Heure 13:03 10:03 07:45 08:28 15:06 - 09:13 14:00 14:29 16:48 13:03 16:08
Maximum _ 20,2 C 100 % 1015,8 hPa 9,4 mm 22,5 km/h
S (4 Bft)
- 0,02 h 0,508 mm 1099 W/m 14,8 C 20,2 C 33,8 km/h
E-SE (5 Bft)
Moyenne _ 13,5 C 83 % 1006,0 hPa #51,4 mm 1,5 km/h (1 Bft) S #22:20 h #13,495 mm 211 W/m 10,3 C 13,5 C 3,5 km/h (1 Bft)
Roquefort les pins